Terminal Aerodrome Forecast
Issued by NWS Blacksburg, VA

Current Version | Previous Version | Graphics & Text | Print | Product List | Glossary On
Versions: 1 2 3 4 5 6 7 8 9 10 11 12 13 14 15 16 17 18 19 20 21 22 23 24 25 26 27 28 29 30 31 32 33 34 35 36 37 38 39 40
000
FTUS41 KRNK 261922 AAA
TAFBLF
TAF AMD
KBLF 261922Z 2619/2718 33007KT P6SM BKN009 OVC018
     FM270300 29007KT P6SM OVC010
      TEMPO 2703/2707 -SHSN
     FM270700 30009KT P6SM -SHSN OVC008
     FM271200 31010KT P6SM OVC015
      TEMPO 2712/2716 -SHSN
     FM271600 31010KT P6SM OVC025=

USA.gov is the U.S. government's official web portal to all federal, state and local government web resources and services.